createdAt,value
2023-01-01T00:03:50.896Z,1.80
2023-01-01T00:09:14.550Z,2.70
2023-01-01T00:14:18.369Z,2.00
2023-01-01T00:19:22.236Z,2.30
2023-01-01T00:24:25.913Z,2.30
2023-01-01T00:29:29.631Z,1.90
2023-01-01T00:34:33.044Z,2.60
2023-01-01T00:39:36.556Z,2.20
2023-01-01T00:44:40.074Z,2.50
2023-01-01T00:49:43.701Z,2.40
2023-01-01T00:54:47.315Z,2.90
2023-01-01T00:59:50.928Z,2.70
2023-01-01T01:04:54.444Z,2.20
2023-01-01T01:09:58.064Z,2.20
2023-01-01T01:15:02.284Z,2.50
2023-01-01T01:25:10.145Z,2.60
2023-01-01T01:30:14.068Z,2.60
2023-01-01T01:35:17.791Z,3.20
2023-01-01T01:40:21.307Z,2.90
2023-01-01T01:45:29.746Z,3.00
2023-01-01T01:50:40.827Z,2.80
2023-01-01T01:55:47.833Z,3.60
2023-01-01T02:00:51.750Z,2.60
2023-01-01T02:05:55.164Z,2.40
2023-01-01T02:10:58.789Z,2.50
2023-01-01T02:16:08.278Z,2.30
2023-01-01T02:21:25.787Z,2.80
2023-01-01T02:26:54.792Z,2.60
2023-01-01T02:32:04.763Z,4.70
2023-01-01T02:37:12.474Z,2.60
2023-01-01T02:42:17.076Z,3.60
2023-01-01T02:47:21.555Z,2.60
2023-01-01T02:52:36.947Z,2.80
2023-01-01T02:57:49.168Z,3.00
2023-01-01T03:03:15.546Z,3.40
2023-01-01T03:08:27.945Z,3.30
2023-01-01T03:13:44.791Z,3.10
2023-01-01T03:19:11.239Z,2.90
2023-01-01T03:24:31.841Z,3.40
2023-01-01T03:29:39.248Z,3.20
2023-01-01T03:34:55.460Z,3.20
2023-01-01T03:40:00.130Z,3.10
2023-01-01T03:45:14.373Z,2.60
2023-01-01T03:50:18.999Z,2.90
2023-01-01T03:55:38.912Z,3.20
2023-01-01T04:00:51.144Z,3.80
2023-01-01T04:05:54.977Z,2.90
2023-01-01T04:11:01.096Z,3.80
2023-01-01T04:16:05.114Z,2.20
2023-01-01T04:26:15.514Z,2.70
2023-01-01T04:31:18.884Z,3.00
2023-01-01T04:36:22.519Z,2.00
2023-01-01T04:41:26.117Z,2.90
2023-01-01T04:46:29.755Z,3.60
2023-01-01T04:51:33.455Z,2.80
2023-01-01T04:56:37.287Z,2.50
2023-01-01T05:01:40.878Z,2.70
2023-01-01T05:06:45.028Z,3.10
2023-01-01T05:11:48.545Z,2.80
2023-01-01T05:16:53.550Z,3.00
2023-01-01T05:21:57.128Z,2.90
2023-01-01T05:27:00.623Z,3.10
2023-01-01T05:32:04.587Z,3.40
2023-01-01T05:37:08.279Z,3.50
2023-01-01T05:42:11.788Z,3.00
2023-01-01T05:47:17.872Z,3.30
2023-01-01T05:52:26.249Z,2.20
2023-01-01T05:57:30.420Z,2.60
2023-01-01T06:02:34.077Z,3.40
2023-01-01T06:07:37.763Z,3.30
2023-01-01T06:12:41.406Z,2.90
2023-01-01T06:17:45.100Z,2.70
2023-01-01T06:22:48.618Z,3.20
2023-01-01T06:27:52.239Z,2.50
2023-01-01T06:32:55.849Z,2.60
2023-01-01T06:38:00.512Z,3.40
2023-01-01T06:43:06.465Z,3.60
2023-01-01T06:48:10.088Z,3.20
2023-01-01T06:53:13.496Z,3.80
2023-01-01T06:58:17.115Z,3.20
2023-01-01T07:03:20.644Z,3.10
2023-01-01T07:08:24.251Z,2.50
2023-01-01T07:13:29.401Z,3.80
2023-01-01T07:18:33.532Z,3.80
2023-01-01T07:23:36.943Z,2.30
2023-01-01T07:28:40.566Z,2.80
2023-01-01T07:33:44.078Z,2.90
2023-01-01T07:38:47.634Z,3.90
2023-01-01T07:43:51.525Z,3.90
2023-01-01T07:48:55.051Z,3.50
2023-01-01T07:54:04.134Z,2.40
2023-01-01T07:59:09.952Z,3.50
2023-01-01T08:04:13.569Z,3.70
2023-01-01T08:09:17.028Z,3.40
2023-01-01T08:14:20.620Z,4.70
2023-01-01T08:19:24.012Z,4.10
2023-01-01T08:24:27.637Z,4.60
2023-01-01T08:29:31.348Z,6.00
2023-01-01T08:34:34.976Z,4.90
2023-01-01T08:39:38.692Z,3.10
2023-01-01T08:44:42.207Z,7.50
2023-01-01T08:49:45.829Z,3.70
2023-01-01T08:54:49.542Z,3.50
2023-01-01T08:59:53.059Z,4.30
2023-01-01T09:04:56.490Z,4.40
2023-01-01T09:10:00.000Z,3.60
2023-01-01T09:15:04.017Z,4.80
2023-01-01T09:20:07.891Z,4.40
2023-01-01T09:25:11.561Z,8.00
2023-01-01T09:30:15.277Z,5.60
2023-01-01T09:35:18.792Z,3.30
2023-01-01T09:40:50.920Z,3.30
2023-01-01T09:46:02.893Z,4.00
2023-01-01T09:51:14.091Z,4.60
2023-01-01T09:56:30.818Z,5.30
2023-01-01T10:01:53.853Z,3.40
2023-01-01T10:07:16.564Z,4.50
2023-01-01T10:12:35.438Z,3.50
2023-01-01T10:17:44.378Z,3.70
2023-01-01T10:22:52.504Z,4.20
2023-01-01T10:28:07.482Z,5.00
2023-01-01T10:33:15.500Z,4.90
2023-01-01T10:38:26.946Z,5.00
2023-01-01T10:43:30.318Z,7.30
2023-01-01T10:48:36.291Z,5.00
2023-01-01T10:53:51.066Z,4.20
2023-01-01T10:58:58.861Z,5.60
2023-01-01T11:04:08.340Z,3.40
2023-01-01T11:09:26.935Z,5.60
2023-01-01T11:14:41.273Z,4.60
2023-01-01T11:19:52.624Z,3.80
2023-01-01T11:25:02.745Z,4.60
2023-01-01T11:30:29.237Z,5.60
2023-01-01T11:35:46.541Z,3.60
2023-01-01T11:40:55.027Z,4.60
2023-01-01T11:45:59.449Z,5.50
2023-01-01T11:51:06.680Z,5.50
2023-01-01T11:56:20.773Z,4.40
2023-01-01T12:06:57.812Z,4.40
2023-01-01T12:12:30.405Z,3.60
2023-01-01T12:17:37.919Z,3.30
2023-01-01T12:22:42.655Z,4.20
2023-01-01T12:28:20.786Z,4.00
2023-01-01T12:33:52.361Z,3.20
2023-01-01T12:39:32.947Z,2.80
2023-01-01T12:44:59.496Z,3.90
2023-01-01T12:50:18.375Z,5.10
2023-01-01T12:55:55.896Z,5.30
2023-01-01T13:01:12.070Z,3.90
2023-01-01T13:06:24.873Z,3.70
2023-01-01T13:11:37.323Z,3.70
2023-01-01T13:16:55.517Z,5.40
2023-01-01T13:22:00.568Z,3.70
2023-01-01T13:27:08.992Z,3.50
2023-01-01T13:32:15.084Z,4.00
2023-01-01T13:37:24.425Z,4.00
2023-01-01T13:42:57.692Z,4.20
2023-01-01T13:48:22.968Z,3.80
2023-01-01T13:53:44.708Z,4.60
2023-01-01T13:59:00.314Z,3.80
2023-01-01T14:04:12.532Z,3.30
2023-01-01T14:09:19.940Z,3.40
2023-01-01T14:14:28.680Z,4.00
2023-01-01T14:19:33.013Z,4.70
2023-01-01T14:24:42.569Z,4.40
2023-01-01T14:29:49.433Z,3.80
2023-01-01T14:35:01.824Z,3.90
2023-01-01T14:40:26.796Z,3.50
2023-01-01T14:45:32.123Z,3.80
2023-01-01T14:50:36.593Z,3.30
2023-01-01T14:55:43.188Z,4.00
2023-01-01T15:00:47.377Z,5.30
2023-01-01T15:11:06.806Z,3.60
2023-01-01T15:16:18.984Z,4.00
2023-01-01T15:21:31.710Z,5.60
2023-01-01T15:26:35.105Z,3.90
2023-01-01T15:31:50.627Z,4.90
2023-01-01T15:36:56.992Z,4.90
2023-01-01T15:42:00.491Z,5.50
2023-01-01T15:47:12.936Z,5.50
2023-01-01T15:52:25.035Z,4.50
2023-01-01T15:57:28.860Z,4.10
2023-01-01T16:02:36.814Z,4.10
2023-01-01T16:07:40.501Z,4.00
2023-01-01T16:12:44.116Z,4.90
2023-01-01T16:17:47.662Z,6.40
2023-01-01T16:22:51.249Z,4.50
2023-01-01T16:27:54.781Z,4.50
2023-01-01T16:32:58.893Z,5.30
2023-01-01T16:38:04.666Z,5.60
2023-01-01T16:43:16.140Z,4.30
2023-01-01T16:48:19.682Z,4.10
2023-01-01T16:53:23.305Z,4.20
2023-01-01T17:03:51.055Z,3.30
2023-01-01T17:14:02.849Z,4.40
2023-01-01T17:19:15.520Z,4.90
2023-01-01T17:29:25.943Z,5.70
2023-01-01T17:34:29.313Z,5.60
2023-01-01T17:39:33.799Z,5.50
2023-01-01T17:44:37.481Z,5.40
2023-01-01T17:49:43.460Z,5.20
2023-01-01T17:54:46.958Z,4.20
2023-01-01T17:59:50.780Z,4.20
2023-01-01T18:04:54.719Z,4.10
2023-01-01T18:09:58.221Z,4.40
2023-01-01T18:15:01.641Z,3.70
2023-01-01T18:20:06.070Z,2.50
2023-01-01T18:30:13.202Z,3.90
2023-01-01T18:35:16.744Z,4.80
2023-01-01T18:40:21.979Z,5.00
2023-01-01T18:45:26.577Z,5.60
2023-01-01T18:50:32.279Z,5.40
2023-01-01T18:55:36.045Z,4.40
2023-01-01T19:00:40.186Z,5.00
2023-01-01T19:05:45.355Z,4.30
2023-01-01T19:11:00.891Z,4.30
2023-01-01T19:16:13.431Z,4.00
2023-01-01T19:21:23.152Z,4.00
2023-01-01T19:26:36.420Z,4.70
2023-01-01T19:31:39.969Z,4.60
2023-01-01T19:36:44.179Z,5.80
2023-01-01T19:41:48.935Z,4.10
2023-01-01T19:46:52.590Z,7.10
2023-01-01T19:51:56.253Z,2.70
2023-01-01T19:56:59.765Z,3.50
2023-01-01T20:02:43.312Z,3.80
2023-01-01T20:07:27.072Z,4.00
2023-01-01T20:12:30.689Z,4.30
2023-01-01T20:17:34.308Z,4.20
2023-01-01T20:22:38.027Z,4.80
2023-01-01T20:28:00.181Z,4.40
2023-01-01T20:33:04.780Z,5.60
2023-01-01T20:38:08.442Z,4.70
2023-01-01T20:43:11.855Z,4.40
2023-01-01T20:48:19.777Z,4.70
2023-01-01T20:53:23.600Z,5.90
2023-01-01T20:58:27.216Z,5.00
2023-01-01T21:03:30.842Z,4.70
2023-01-01T21:08:34.555Z,5.20
2023-01-01T21:13:37.965Z,4.80
2023-01-01T21:18:41.798Z,5.20
2023-01-01T21:23:45.305Z,5.10
2023-01-01T21:28:49.233Z,7.20
2023-01-01T21:33:52.863Z,5.40
2023-01-01T21:38:57.316Z,5.70
2023-01-01T21:44:00.803Z,4.30
2023-01-01T21:49:04.423Z,4.70
2023-01-01T21:54:10.900Z,7.60
2023-01-01T21:59:44.527Z,5.00
2023-01-01T22:04:50.904Z,5.90
2023-01-01T22:09:56.982Z,5.00
2023-01-01T22:15:24.049Z,4.30
2023-01-01T22:20:31.891Z,4.80
2023-01-01T22:25:35.490Z,4.90
2023-01-01T22:30:43.928Z,4.30
2023-01-01T22:35:47.639Z,4.30
2023-01-01T22:40:52.523Z,5.00
2023-01-01T22:45:55.938Z,5.40
2023-01-01T22:51:05.149Z,5.30
2023-01-01T22:56:08.765Z,5.60
2023-01-01T23:01:12.325Z,5.30
2023-01-01T23:06:16.000Z,4.90
2023-01-01T23:11:20.746Z,4.70
2023-01-01T23:16:24.179Z,5.90
2023-01-01T23:21:29.221Z,4.50
2023-01-01T23:26:33.029Z,5.00
2023-01-01T23:31:38.358Z,4.90
2023-01-01T23:36:44.406Z,5.20
2023-01-01T23:41:47.984Z,5.50
2023-01-01T23:46:52.111Z,5.70
2023-01-01T23:51:56.548Z,6.00
2023-01-01T23:56:59.962Z,5.70
